Flight Track Log - Related Links

Times and Time Zones

All times are in EDT time to prevent confusion due to time zone crossing. See the AAL1431 flight status page for this flight to view local times or setup timezone preferences in your user account.

Time Position Orientation Groundspeed Altitude Reporting Facility
EDT Latitude Longitude Course Direction KTS MPH feet Rate Location/Type
Thu 11:52:38 PM 32.8720 -97.0520 184° South 165 190 1,800  Level FlightAware ADS-B
Thu 11:53:06 PM 32.8480 -97.0550 186° South 195 224 2,300 1,342 Climbing FlightAware ADS-B
Thu 11:53:54 PM 32.8010 -97.0720 197° South 239 275 3,500 1,579 Climbing FlightAware ADS-B
Thu 11:54:22 PM 32.7750 -97.0950 217° Southwest 263 303 4,300 1,950 Climbing FlightAware ADS-B
Thu 11:54:34 PM 32.7700 -97.1110 250° West 268 308 4,800 2,634 Climbing FlightAware ADS-B
Thu 11:55:03 PM 32.7800 -97.1540 285° West 272 313 6,100 2,357 Climbing FlightAware ADS-B
Thu 11:55:30 PM 32.7950 -97.1890 297° West 282 325 7,000 2,372 Climbing FlightAware ADS-B
Thu 11:55:46 PM 32.8050 -97.2120 297° West 279 321 7,800 2,933 Climbing FlightAware ADS-B
Thu 11:56:15 PM 32.8210 -97.2510 296° West 278 320 9,200 2,647 Climbing FlightAware ADS-B
Thu 11:56:54 PM 32.8430 -97.3070 295° West 287 330 10,800 1,643 Climbing FlightAware ADS-B
Thu 11:57:39 PM 32.8710 -97.3800 295° West 346 398 11,500 1,624 Climbing FlightAware ADS-B
Thu 11:58:19 PM 32.9010 -97.4480 298° West 357 411 13,100 2,526 Climbing FlightAware ADS-B
Thu 11:58:55 PM 32.9380 -97.5010 310° West 363 418 14,700 2,625 Climbing FlightAware ADS-B
Thu 11:59:39 PM 32.9870 -97.5730 309° West 375 432 16,600 2,429 Climbing FlightAware ADS-B
Fri 12:00:19 AM 33.0310 -97.6380 309° West 386 444 18,100 2,571 Climbing FlightAware ADS-B
Fri 12:01:03 AM 33.0780 -97.7130 307° West 386 444 20,200 2,543 Climbing FlightAware ADS-B
Fri 12:01:51 AM 33.1150 -97.8080 295° West 399 459 22,000 2,000 Climbing FlightAware ADS-B
Fri 12:02:27 AM 33.1400 -97.8790 293° West 408 470 23,000 1,760 Climbing FlightAware ADS-B
Fri 12:03:06 AM 33.1790 -97.9540 302° West 414 476 24,200 1,355 Climbing FlightAware ADS-B
Fri 12:04:00 AM 33.2310 -98.0530 302° West 417 480 25,100 1,826 Climbing FlightAware ADS-B
Fri 12:04:38 AM 33.2730 -98.1330 302° West 422 486 27,000 2,114 Climbing FlightAware ADS-B
Fri 12:05:28 AM 33.3270 -98.2360 302° West 430 495 28,200 1,465 Climbing FlightAware ADS-B
Fri 12:06:04 AM 33.3640 -98.3080 302° West 435 501 29,100 1,500 Climbing FlightAware ADS-B
Fri 12:06:48 AM 33.4110 -98.3980 302° West 435 501 30,200 1,463 Climbing FlightAware ADS-B
Fri 12:07:26 AM 33.4520 -98.4760 302° West 437 503 31,100 651 Climbing FlightAware ADS-B
Fri 12:08:11 AM 33.4910 -98.5550 301° West 437 503 31,100  Level FlightAware ADS-B
Fri 12:08:48 AM 33.5240 -98.6200 301° West 437 503 31,100  Level FlightAware ADS-B
Fri 12:09:24 AM 33.5560 -98.6840 301° West 437 503 31,100  Level FlightAware ADS-B
Fri 12:10:00 AM 33.5880 -98.7470 301° West 437 503 31,100  Level FlightAware ADS-B
Fri 12:10:48 AM 33.6300 -98.8320 301° West 437 503 31,100  Level FlightAware ADS-B
Fri 12:11:25 AM 33.6630 -98.8980 301° West 437 503 31,100  Level FlightAware ADS-B
Fri 12:12:13 AM 33.7060 -98.9830 301° West 437 503 31,100  Level FlightAware ADS-B
Fri 12:12:50 AM 33.7380 -99.0480 301° West 437 503 31,100  Level FlightAware ADS-B
Fri 12:13:38 AM 33.7810 -99.1330 301° West 437 503 31,100  Level FlightAware ADS-B
Fri 12:14:12 AM 33.8110 -99.1930 301° West 437 503 31,100  Level FlightAware ADS-B
Fri 12:14:48 AM 33.8430 -99.2570 301° West 437 503 31,100  Level FlightAware ADS-B
Fri 12:15:51 AM 33.8980 -99.3690 301° West 437 503 31,100  Level FlightAware ADS-B
Fri 12:16:39 AM 33.9410 -99.4540 301° West 437 503 31,100  Level FlightAware ADS-B
Fri 12:17:15 AM 33.9730 -99.5180 301° West 437 503 31,100 2,604 Level FlightAware ADS-B
Fri 12:19:18 AM 34.1690 -99.8850 303° West 417 480 38,000 2,393 Climbing FlightAware ADS-B
Fri 12:20:08 AM 34.2120 -99.9740 300° West 417 480 38,000  Level FlightAware ADS-B
Fri 12:20:44 AM 34.2410 -100.0360 300° West 417 480 38,000  Level FlightAware ADS-B
Fri 12:21:30 AM 34.3000 -100.1490 302° West 418 481 38,000  Level FlightAware ADS-B
Fri 12:22:16 AM 34.3420 -100.2360 300° West 418 481 38,000  Level FlightAware ADS-B
Fri 12:22:52 AM 34.3720 -100.2980 300° West 418 481 38,000  Level FlightAware ADS-B
Fri 12:23:40 AM 34.4110 -100.3810 300° West 418 481 38,000  Level FlightAware ADS-B
Fri 12:24:17 AM 34.4410 -100.4450 300° West 418 481 38,000  Level FlightAware ADS-B
Fri 12:24:53 AM 34.4710 -100.5070 300° West 418 481 38,000  Level FlightAware ADS-B
Fri 12:25:29 AM 34.5010 -100.5690 300° West 418 481 38,000  Level FlightAware ADS-B
Fri 12:26:18 AM 34.5410 -100.6540 300° West 418 481 38,000  Level FlightAware ADS-B
Fri 12:26:55 AM 34.5710 -100.7180 300° West 418 481 38,000  Level FlightAware ADS-B
Fri 12:27:31 AM 34.6010 -100.7800 300° West 418 481 38,000  Level FlightAware ADS-B
Fri 12:28:19 AM 34.6400 -100.8630 300° West 418 481 38,000  Level FlightAware ADS-B
Fri 12:28:56 AM 34.6710 -100.9270 301° West 418 481 38,000  Level FlightAware ADS-B
Fri 12:29:34 AM 34.7020 -100.9930 300° West 418 481 38,000  Level FlightAware ADS-B
Fri 12:30:11 AM 34.7320 -101.0570 300° West 418 481 38,000  Level FlightAware ADS-B
Fri 12:30:59 AM 34.7720 -101.1400 300° West 418 481 38,000 -7,793 Level FlightAware ADS-B
Fri 12:31:38 AM 33.2260 -98.0430 120° Southeast 423 487 26,700 -8,921 Descending FlightAware ADS-B
Fri 12:32:15 AM 33.2590 -98.1050 302° West 423 487 26,700  Level FlightAware ADS-B
Fri 12:33:03 AM 33.3010 -98.1860 302° West 423 487 26,700  Level FlightAware ADS-B
Fri 12:33:39 AM 33.3330 -98.2470 302° West 423 487 26,700  Level FlightAware ADS-B
Fri 12:34:18 AM 33.3670 -98.3130 302° West 423 487 26,700  Level FlightAware ADS-B
Fri 12:35:07 AM 33.4100 -98.3960 302° West 423 487 26,700 3,183 Level FlightAware ADS-B
Fri 12:37:51 AM 35.4244 -102.0353 302° West 427 491 38,000 3,027 Climbing Albuquerque Center
Fri 12:38:51 AM 35.4933 -102.1561 305° West 431 496 38,000  Level Albuquerque Center
Fri 12:39:51 AM 35.5603 -102.2764 304° West 430 495 38,000  Level Albuquerque Center
Fri 12:40:51 AM 35.6275 -102.3975 304° West 428 493 38,000  Level Albuquerque Center
Fri 12:41:52 AM 35.6961 -102.5161 305° West 428 493 38,000  Level Albuquerque Center
Fri 12:42:52 AM 35.7619 -102.6369 304° West 426 490 38,000  Level Albuquerque Center
Fri 12:43:52 AM 35.8281 -102.7575 304° West 426 490 38,000  Level Albuquerque Center
Fri 12:44:52 AM 35.8942 -102.8764 304° West 423 487 38,000  Level Albuquerque Center
Fri 12:45:53 AM 35.9544 -102.9886 304° West 422 486 38,000  Level Albuquerque Center
Fri 12:46:53 AM 36.0208 -103.1089 304° West 422 486 38,000  Level Albuquerque Center
Fri 12:47:53 AM 36.0867 -103.2292 304° West 422 486 38,000  Level Albuquerque Center
Fri 12:48:53 AM 36.1519 -103.3506 304° West 421 484 38,000  Level Albuquerque Center
Fri 12:49:53 AM 36.2172 -103.4725 304° West 423 487 38,000  Level Albuquerque Center
Fri 12:50:54 AM 36.2822 -103.5931 304° West 420 483 38,000  Level Albuquerque Center
Fri 12:51:54 AM 36.3469 -103.7128 304° West 418 481 38,000  Level Albuquerque Center
Fri 12:52:54 AM 36.4114 -103.8358 303° West 420 483 38,000  Level Albuquerque Center
Fri 12:53:54 AM 36.4761 -103.9569 304° West 420 483 38,000  Level Albuquerque Center
Fri 12:54:55 AM 36.5394 -104.0767 303° West 416 479 38,000  Level Albuquerque Center
Fri 12:55:55 AM 36.6019 -104.1989 303° West 416 479 38,000  Level Albuquerque Center
Fri 12:56:55 AM 36.6650 -104.3225 302° West 418 481 38,000  Level Albuquerque Center
Fri 01:02:52 AM 37.0412 -105.0670 302° West 423 487 38,000  Level FlightAware ADS-B
Fri 01:03:57 AM 37.1078 -105.2020 302° West 426 490 38,000  Level FlightAware ADS-B
Fri 01:04:27 AM 37.1391 -105.2650 302° West 428 493 38,000  Level FlightAware ADS-B
Fri 01:04:57 AM 37.1707 -105.3280 302° West 429 494 38,000  Level FlightAware ADS-B
Fri 01:05:29 AM 37.2039 -105.3950 302° West 429 494 38,000  Level FlightAware ADS-B
Fri 01:06:28 AM 37.2657 -105.5210 302° West 429 494 38,000  Level FlightAware ADS-B
Fri 01:06:59 AM 37.2984 -105.5870 302° West 429 494 38,000  Level FlightAware ADS-B
Fri 01:07:36 AM 37.3366 -105.6650 302° West 429 494 38,000  Level FlightAware ADS-B
Fri 01:08:08 AM 37.3700 -105.7330 302° West 430 495 38,000  Level FlightAware ADS-B
Fri 01:08:39 AM 37.4019 -105.7980 302° West 432 497 38,000  Level FlightAware ADS-B
Fri 01:09:09 AM 37.4335 -105.8630 301° West 433 498 38,000  Level FlightAware ADS-B
Fri 01:09:39 AM 37.4651 -105.9280 302° West 433 498 38,000  Level FlightAware ADS-B
Fri 01:10:10 AM 37.4968 -105.9930 302° West 434 499 38,000  Level FlightAware ADS-B
Fri 01:10:46 AM 37.5351 -106.0690 302° West 433 498 38,000  Level FlightAware ADS-B
Fri 01:11:16 AM 37.5689 -106.1340 303° West 433 498 38,000  Level FlightAware ADS-B
Fri 01:11:47 AM 37.6023 -106.1990 303° West 434 499 38,000  Level FlightAware ADS-B
Fri 01:12:18 AM 37.6355 -106.2630 303° West 434 499 38,000  Level FlightAware ADS-B
Fri 01:12:52 AM 37.6730 -106.3370 303° West 435 501 38,000  Level FlightAware ADS-B
Fri 01:13:22 AM 37.7056 -106.4010 303° West 436 502 38,000  Level FlightAware ADS-B
Fri 01:13:52 AM 37.7384 -106.4660 303° West 436 502 38,000  Level FlightAware ADS-B
Fri 01:14:23 AM 37.7714 -106.5310 303° West 434 499 38,000  Level FlightAware ADS-B
Fri 01:14:53 AM 37.8038 -106.5950 303° West 431 496 38,000  Level FlightAware ADS-B
Fri 01:15:24 AM 37.8371 -106.6610 303° West 429 494 38,000  Level FlightAware ADS-B
Fri 01:15:59 AM 37.8745 -106.7350 303° West 427 491 38,000  Level FlightAware ADS-B
Fri 01:16:29 AM 37.9064 -106.7980 303° West 425 489 38,000  Level FlightAware ADS-B
Fri 01:17:00 AM 37.9384 -106.8620 302° West 424 488 38,000  Level FlightAware ADS-B
Fri 01:17:43 AM 37.9835 -106.9520 302° West 423 487 38,000  Level FlightAware ADS-B
Fri 01:18:21 AM 38.0225 -107.0300 302° West 421 484 38,000  Level FlightAware ADS-B
Fri 01:18:51 AM 38.0544 -107.0940 302° West 421 484 38,000  Level FlightAware ADS-B
Fri 01:19:24 AM 38.0880 -107.1610 303° West 420 483 38,000  Level FlightAware ADS-B
Fri 01:20:31 AM 38.1570 -107.3000 302° West 425 489 38,000  Level FlightAware ADS-B
Fri 01:21:12 AM 38.2000 -107.3880 302° West 424 488 38,000  Level FlightAware ADS-B
Fri 01:21:57 AM 38.2470 -107.4820 303° West 423 487 38,000  Level FlightAware ADS-B
Fri 01:22:37 AM 38.2880 -107.5660 302° West 420 483 38,000  Level FlightAware ADS-B
Fri 01:23:19 AM 38.3310 -107.6530 302° West 420 483 38,000  Level FlightAware ADS-B
Fri 01:24:01 AM 38.3750 -107.7420 302° West 421 484 38,000  Level FlightAware ADS-B
Fri 01:24:43 AM 38.4170 -107.8290 302° West 421 484 38,000  Level FlightAware ADS-B
Fri 01:25:27 AM 38.4620 -107.9220 302° West 419 482 38,000  Level FlightAware ADS-B
Fri 01:26:09 AM 38.5060 -108.0090 303° West 416 479 38,000  Level FlightAware ADS-B
Fri 01:26:49 AM 38.5540 -108.0860 309° West 417 480 38,000  Level FlightAware ADS-B
Fri 01:27:29 AM 38.6020 -108.1630 309° West 416 479 38,000  Level FlightAware ADS-B
Fri 01:28:13 AM 38.6540 -108.2470 308° West 416 479 38,000  Level FlightAware ADS-B
Fri 01:28:57 AM 38.7070 -108.3320 309° West 415 478 38,000  Level FlightAware ADS-B
Fri 01:29:39 AM 38.7570 -108.4120 309° West 417 480 38,000  Level FlightAware ADS-B
Fri 01:30:19 AM 38.8060 -108.4910 309° West 416 479 38,000  Level FlightAware ADS-B
Fri 01:30:51 AM 38.8430 -108.5520 308° West 418 481 38,000  Level FlightAware ADS-B
Fri 01:31:37 AM 38.8990 -108.6410 309° West 419 482 38,000  Level FlightAware ADS-B
Fri 01:32:21 AM 38.9520 -108.7280 308° West 420 483 38,000  Level FlightAware ADS-B
Fri 01:32:57 AM 38.9950 -108.7990 308° West 421 484 38,000  Level FlightAware ADS-B
Fri 01:33:36 AM 39.0430 -108.8770 308° West 421 484 38,000  Level FlightAware ADS-B
Fri 01:34:18 AM 39.0930 -108.9590 308° West 421 484 38,000  Level FlightAware ADS-B
Fri 01:34:50 AM 39.1320 -109.0220 309° West 421 484 38,000  Level FlightAware ADS-B
Fri 01:35:37 AM 39.1880 -109.1140 308° West 418 481 38,000  Level FlightAware ADS-B
Fri 01:36:17 AM 39.2350 -109.1930 308° West 417 480 38,000  Level FlightAware ADS-B
Fri 01:37:02 AM 39.2890 -109.2810 308° West 418 481 38,000  Level FlightAware ADS-B
Fri 01:37:42 AM 39.3350 -109.3590 307° West 417 480 38,000  Level FlightAware ADS-B
Fri 01:38:23 AM 39.3840 -109.4390 308° West 420 483 38,000  Level FlightAware ADS-B
Fri 01:39:04 AM 39.4340 -109.5220 308° West 422 486 38,000  Level FlightAware ADS-B
Fri 01:39:41 AM 39.4770 -109.5950 307° West 422 486 38,000  Level FlightAware ADS-B
Fri 01:40:19 AM 39.5220 -109.6710 308° West 424 488 38,000  Level FlightAware ADS-B
Fri 01:41:00 AM 39.5710 -109.7520 308° West 420 483 38,000  Level FlightAware ADS-B
Fri 01:41:40 AM 39.6170 -109.8310 307° West 420 483 38,000  Level FlightAware ADS-B
Fri 01:42:15 AM 39.6610 -109.9040 308° West 418 481 38,000  Level FlightAware ADS-B
Fri 01:43:03 AM 39.7150 -109.9970 307° West 414 476 38,000  Level FlightAware ADS-B
Fri 01:43:47 AM 39.7680 -110.0850 308° West 411 473 38,000  Level FlightAware ADS-B
Fri 01:44:28 AM 39.8130 -110.1620 307° West 411 473 38,000  Level FlightAware ADS-B
Fri 01:45:25 AM 39.8800 -110.2770 307° West 411 473 38,000  Level FlightAware ADS-B
Fri 01:46:05 AM 39.9260 -110.3550 308° West 414 476 38,000  Level FlightAware ADS-B
Fri 01:46:50 AM 39.9770 -110.4440 307° West 416 479 38,000  Level FlightAware ADS-B
Fri 01:47:30 AM 40.0240 -110.5240 308° West 417 480 38,000  Level FlightAware ADS-B
Fri 01:48:11 AM 40.0730 -110.6090 307° West 417 480 38,000  Level FlightAware ADS-B
Fri 01:48:42 AM 40.1099 -110.6730 307° West 418 481 38,000  Level FlightAware ADS-B
Fri 01:49:21 AM 40.1551 -110.7510 307° West 419 482 38,000  Level FlightAware ADS-B
Fri 01:49:58 AM 40.1978 -110.8250 307° West 422 486 38,000  Level FlightAware ADS-B
Fri 01:50:49 AM 40.2577 -110.9300 307° West 425 489 38,000  Level FlightAware ADS-B
Fri 01:51:19 AM 40.2936 -110.9920 307° West 425 489 38,000  Level FlightAware ADS-B
Fri 01:52:35 AM 40.3827 -111.1480 307° West 423 487 38,000  Level FlightAware ADS-B
Fri 01:53:05 AM 40.4174 -111.2100 306° West 421 484 38,000  Level FlightAware ADS-B
Fri 01:53:35 AM 40.4527 -111.2720 307° West 420 483 38,000  Level FlightAware ADS-B
Fri 01:54:07 AM 40.4889 -111.3360 307° West 420 483 38,000  Level FlightAware ADS-B
Fri 01:54:37 AM 40.5239 -111.3980 307° West 419 482 38,000  Level FlightAware ADS-B
Fri 01:55:07 AM 40.5588 -111.4600 307° West 419 482 38,000  Level FlightAware ADS-B
Fri 01:55:38 AM 40.5937 -111.5220 307° West 418 481 38,000  Level FlightAware ADS-B
Fri 01:55:56 AM 40.6145 -111.5590 307° West 417 480 38,000  Level FlightAware ADS-B
Fri 01:56:01 AM 40.6211 -111.5690 311° West 420 483 38,000  Level FlightAware ADS-B
Fri 01:56:05 AM 40.6270 -111.5760 318° Northwest 422 486 38,000  Level FlightAware ADS-B
Fri 01:56:11 AM 40.6361 -111.5850 323° Northwest 425 489 38,000  Level FlightAware ADS-B
Fri 01:56:19 AM 40.6502 -111.5950 332° Northwest 429 494 38,000  Level FlightAware ADS-B
Fri 01:56:28 AM 40.6651 -111.6040 335° Northwest 434 499 38,000  Level FlightAware ADS-B
Fri 01:56:33 AM 40.6750 -111.6080 343° North 435 501 38,000  Level FlightAware ADS-B
Fri 01:57:04 AM 40.7370 -111.6270 347° North 438 504 38,000  Level FlightAware ADS-B
Fri 01:57:35 AM 40.7975 -111.6450 347° North 442 509 38,000  Level FlightAware ADS-B
Fri 01:58:05 AM 40.8579 -111.6620 348° North 445 512 38,000  Level FlightAware ADS-B
Fri 01:58:35 AM 40.9187 -111.6790 348° North 446 513 38,000  Level FlightAware ADS-B
Fri 01:59:05 AM 40.9793 -111.6960 348° North 445 512 38,000  Level FlightAware ADS-B
Fri 01:59:14 AM 40.9982 -111.7010 349° North 448 516 38,000  Level FlightAware ADS-B
Fri 01:59:29 AM 41.0285 -111.7050 354° North 450 518 38,000  Level FlightAware ADS-B
Fri 01:59:54 AM 41.0807 -111.7090 357° North 450 518 38,000  Level FlightAware ADS-B
Fri 02:00:18 AM 41.1308 -111.7120 357° North 451 519 38,000  Level FlightAware ADS-B
Fri 02:00:37 AM 41.1696 -111.7120 360° North 452 520 38,000  Level FlightAware ADS-B
Fri 02:01:07 AM 41.2328 -111.7110 North 451 519 38,000  Level FlightAware ADS-B
Fri 02:01:38 AM 41.2962 -111.7100 North 449 517 38,000  Level FlightAware ADS-B
Fri 02:01:58 AM 41.3380 -111.7100 360° North 448 516 38,000  Level FlightAware ADS-B
Fri 02:02:28 AM 41.4004 -111.7100 360° North 449 517 38,000  Level FlightAware ADS-B
Fri 02:02:58 AM 41.4630 -111.7100 360° North 450 518 38,000  Level FlightAware ADS-B
Fri 02:03:30 AM 41.5304 -111.7100 360° North 450 518 38,000  Level FlightAware ADS-B
Fri 02:04:08 AM 41.6091 -111.7090 North 451 519 38,000  Level FlightAware ADS-B
Fri 02:04:26 AM 41.6457 -111.7090 360° North 449 517 38,000  Level FlightAware ADS-B
Fri 02:04:56 AM 41.7084 -111.7090 360° North 449 517 38,000  Level FlightAware ADS-B
Fri 02:05:44 AM 41.8074 -111.7160 357° North 447 514 38,000  Level FlightAware ADS-B
Fri 02:06:19 AM 41.8779 -111.7290 352° North 443 510 38,000  Level FlightAware ADS-B
Fri 02:06:42 AM 41.9230 -111.7400 350° North 436 502 38,000  Level FlightAware ADS-B
Fri 02:06:54 AM 41.9457 -111.7510 340° North 428 493 38,000  Level FlightAware ADS-B
Fri 02:07:27 AM 42.0005 -111.7980 327° Northwest 420 483 38,000  Level FlightAware ADS-B
Fri 02:07:43 AM 42.0221 -111.8250 317° Northwest 415 478 38,000  Level FlightAware ADS-B
Fri 02:08:16 AM 42.0626 -111.8890 310° West 414 476 38,000  Level FlightAware ADS-B
Fri 02:08:46 AM 42.0975 -111.9510 307° West 411 473 38,000  Level FlightAware ADS-B
Fri 02:09:41 AM 42.1620 -112.0600 309° West 413 475 38,000  Level FlightAware ADS-B
Fri 02:09:48 AM 42.1707 -112.0740 310° West 412 474 38,000  Level FlightAware ADS-B
Fri 02:10:19 AM 42.2030 -112.1280 309° West 413 475 38,000  Level FlightAware ADS-B
Fri 02:10:37 AM 42.2298 -112.1720 309° West 414 476 38,000  Level FlightAware ADS-B
Fri 02:11:26 AM 42.2892 -112.2700 309° West 414 476 38,000  Level FlightAware ADS-B
Fri 02:11:59 AM 42.3297 -112.3380 309° West 419 482 38,000  Level FlightAware ADS-B
Fri 02:12:30 AM 42.3670 -112.3990 310° West 423 487 38,000  Level FlightAware ADS-B
Fri 02:13:09 AM 42.4130 -112.4780 308° West 424 488 38,000  Level FlightAware ADS-B
Fri 02:14:16 AM 42.4970 -112.6190 309° West 426 490 38,000  Level FlightAware ADS-B
Fri 02:15:23 AM 42.5700 -112.7430 309° West 426 490 38,000  Level FlightAware ADS-B
Fri 02:15:59 AM 42.6070 -112.8080 308° West 426 490 38,000  Level FlightAware ADS-B
Fri 02:16:38 AM 42.6470 -112.8780 308° West 426 490 38,000  Level FlightAware ADS-B
Fri 02:17:14 AM 42.6840 -112.9430 308° West 426 490 38,000  Level FlightAware ADS-B
Fri 02:18:02 AM 42.7340 -113.0290 308° West 426 490 38,000  Level FlightAware ADS-B
Fri 02:18:38 AM 42.8110 -113.1510 311° West 413 475 38,000  Level FlightAware ADS-B
Fri 02:19:14 AM 42.8470 -113.2140 308° West 413 475 38,000  Level FlightAware ADS-B
Fri 02:20:02 AM 42.8950 -113.2980 308° West 413 475 38,000  Level FlightAware ADS-B
Fri 02:20:14 AM 42.9252 -113.3480 310° West 412 474 38,000  Level FlightAware ADS-B
Fri 02:20:47 AM 42.9635 -113.4150 308° West 411 473 38,000  Level FlightAware ADS-B
Fri 02:22:04 AM 43.0514 -113.5667 308° West 412 474 38,000  Level Salt Lake Center
Fri 02:23:05 AM 43.1197 -113.6869 308° West 418 481 38,000  Level Salt Lake Center
Fri 02:24:05 AM 43.1878 -113.8058 308° West 415 478 38,000  Level Salt Lake Center
Fri 02:26:05 AM 43.3342 -114.0656 308° West 420 483 38,000  Level Salt Lake Center
Fri 02:27:06 AM 43.4025 -114.1869 308° West 419 482 38,000  Level Salt Lake Center
Fri 02:28:06 AM 43.4833 -114.3297 308° West 422 486 38,000  Level Salt Lake Center
Fri 02:29:06 AM 43.5517 -114.4519 308° West 422 486 38,000  Level Salt Lake Center
Fri 02:30:07 AM 43.6192 -114.5725 308° West 416 479 38,000  Level Salt Lake Center
Fri 02:31:07 AM 43.6858 -114.6939 307° West 415 478 38,000  Level Salt Lake Center
Fri 02:32:07 AM 43.7639 -114.8356 307° West 415 478 38,000  Level Salt Lake Center
Fri 02:33:08 AM 43.8317 -114.9567 308° West 416 479 38,000  Level Salt Lake Center
Fri 02:34:08 AM 43.8989 -115.0789 307° West 419 482 38,000  Level Salt Lake Center
Fri 02:35:08 AM 43.9767 -115.2239 307° West 420 483 38,000  Level Salt Lake Center
Fri 02:36:09 AM 44.0458 -115.3489 308° West 425 489 38,000  Level Salt Lake Center
Fri 02:37:09 AM 44.1131 -115.4747 307° West 424 488 38,000  Level Salt Lake Center
Fri 02:38:09 AM 44.1819 -115.6031 307° West 430 495 38,000  Level Salt Lake Center
Fri 02:39:10 AM 44.2614 -115.7517 307° West 429 494 38,000  Level Salt Lake Center
Fri 02:40:10 AM 44.3306 -115.8803 307° West 432 497 38,000  Level Salt Lake Center
Fri 02:41:10 AM 44.3969 -116.0047 307° West 424 488 38,000  Level Salt Lake Center
Fri 02:42:11 AM 44.4717 -116.1472 306° West 429 494 38,000  Level Salt Lake Center
Fri 02:43:11 AM 44.5406 -116.2803 306° West 436 502 38,000  Level Salt Lake Center
Fri 02:44:12 AM 44.6175 -116.4281 306° West 426 490 38,000  Level Salt Lake Center
Fri 02:45:12 AM 44.6847 -116.5556 307° West 426 490 38,000  Level Salt Lake Center
Fri 02:46:12 AM 44.7517 -116.6847 306° West 426 490 38,000  Level Salt Lake Center
Fri 02:47:13 AM 44.8300 -116.8375 306° West 430 495 38,000  Level Salt Lake Center
Fri 02:48:13 AM 44.8969 -116.9669 306° West 430 495 38,000  Level Salt Lake Center
Fri 02:49:13 AM 44.9642 -117.0994 306° West 432 497 38,000  Level Salt Lake Center
Fri 02:50:14 AM 45.0311 -117.2314 306° West 432 497 38,000  Level Salt Lake Center
Fri 02:51:14 AM 45.1081 -117.3850 305° West 430 495 38,000  Level Salt Lake Center
Fri 02:52:14 AM 45.1756 -117.5164 306° West 431 496 38,000  Level Salt Lake Center
Fri 02:53:15 AM 45.2417 -117.6492 305° West 430 495 38,000  Level Salt Lake Center
Fri 02:54:15 AM 45.3072 -117.7814 305° West 427 491 38,000  Level Salt Lake Center
Fri 02:59:25 AM 45.6670 -118.5040 305° West 421 484 38,000  Level FlightAware ADS-B
Fri 03:00:23 AM 45.7370 -118.6450 305° West 420 483 38,000  Level FlightAware ADS-B
Fri 03:01:07 AM 45.7860 -118.7470 305° West 420 483 38,000  Level FlightAware ADS-B
Fri 03:01:41 AM 45.8240 -118.8250 305° West 420 483 38,000  Level FlightAware ADS-B
Fri 03:02:08 AM 45.8540 -118.8870 305° West 418 481 38,000  Level FlightAware ADS-B
Fri 03:02:48 AM 45.8980 -118.9780 305° West 418 481 38,000  Level FlightAware ADS-B
Fri 03:03:28 AM 45.9420 -119.0680 305° West 423 487 38,000  Level FlightAware ADS-B
Fri 03:04:08 AM 45.9880 -119.1620 305° West 425 489 38,000  Level FlightAware ADS-B
Fri 03:04:50 AM 46.0340 -119.2580 305° West 425 489 38,000  Level FlightAware ADS-B
Fri 03:05:28 AM 46.0770 -119.3480 305° West 424 488 38,000  Level FlightAware ADS-B
Fri 03:06:14 AM 46.1270 -119.4540 304° West 423 487 38,000  Level FlightAware ADS-B
Fri 03:06:57 AM 46.1740 -119.5530 304° West 422 486 38,000  Level FlightAware ADS-B
Fri 03:07:37 AM 46.2190 -119.6470 305° West 421 484 38,000  Level FlightAware ADS-B
Fri 03:08:22 AM 46.2690 -119.7520 305° West 420 483 38,000  Level FlightAware ADS-B
Fri 03:08:56 AM 46.3055 -119.8310 304° West 419 482 38,000  Level FlightAware ADS-B
Fri 03:09:41 AM 46.3530 -119.9320 304° West 418 481 38,000  Level FlightAware ADS-B
Fri 03:10:26 AM 46.4030 -120.0380 304° West 419 482 38,000  Level FlightAware ADS-B
Fri 03:11:30 AM 46.4730 -120.1880 304° West 422 486 38,000  Level FlightAware ADS-B
Fri 03:12:10 AM 46.5160 -120.2820 304° West 423 487 38,000 -169 Level FlightAware ADS-B
Fri 03:12:41 AM 46.5496 -120.3550 304° West 422 486 37,800 -590 Descending FlightAware ADS-B
Fri 03:13:11 AM 46.5823 -120.4250 304° West 417 480 37,400 -885 Descending FlightAware ADS-B
Fri 03:13:42 AM 46.6150 -120.4970 303° West 421 484 36,900 -984 Descending FlightAware ADS-B
Fri 03:14:12 AM 46.6474 -120.5680 304° West 424 488 36,400 -984 Descending FlightAware ADS-B
Fri 03:14:43 AM 46.6817 -120.6430 304° West 425 489 35,900 -1,364 Descending FlightAware ADS-B
Fri 03:15:18 AM 46.7188 -120.7240 304° West 421 484 34,900 -2,308 Descending FlightAware ADS-B
Fri 03:15:48 AM 46.7516 -120.7950 304° West 424 488 33,400 -3,049 Descending FlightAware ADS-B
Fri 03:16:19 AM 46.7847 -120.8680 304° West 426 490 31,800 -3,049 Descending FlightAware ADS-B
Fri 03:16:49 AM 46.8172 -120.9400 303° West 427 491 30,300 -2,800 Descending FlightAware ADS-B
Fri 03:17:19 AM 46.8499 -121.0130 303° West 422 486 29,000 -2,400 Descending FlightAware ADS-B
Fri 03:17:49 AM 46.8816 -121.0840 303° West 415 478 27,900 -2,361 Descending FlightAware ADS-B
Fri 03:18:20 AM 46.9134 -121.1550 303° West 408 470 26,600 -2,361 Descending FlightAware ADS-B
Fri 03:18:50 AM 46.9443 -121.2240 303° West 400 460 25,500 -2,300 Descending FlightAware ADS-B
Fri 03:19:20 AM 46.9743 -121.2910 303° West 392 451 24,300 -2,300 Descending FlightAware ADS-B
Fri 03:19:50 AM 47.0037 -121.3570 303° West 384 442 23,200 -2,100 Descending FlightAware ADS-B
Fri 03:20:20 AM 47.0325 -121.4220 303° West 376 433 22,200 -1,700 Descending FlightAware ADS-B
Fri 03:20:50 AM 47.0607 -121.4850 303° West 361 415 21,500 -1,279 Descending FlightAware ADS-B
Fri 03:21:21 AM 47.0873 -121.5440 304° West 342 394 20,900 -1,475 Descending FlightAware ADS-B
Fri 03:21:51 AM 47.1144 -121.6030 304° West 348 400 20,000 -1,770 Descending FlightAware ADS-B
Fri 03:22:22 AM 47.1420 -121.6630 304° West 351 404 19,100 -1,821 Descending FlightAware ADS-B
Fri 03:22:47 AM 47.1653 -121.7140 304° West 347 399 18,300 -1,875 Descending FlightAware ADS-B
Fri 03:22:54 AM 47.1721 -121.7270 308° West 347 399 18,100 -1,500 Descending FlightAware ADS-B
Fri 03:22:59 AM 47.1773 -121.7350 314° West 347 399 18,000 -1,500 Descending FlightAware ADS-B
Fri 03:23:06 AM 47.1847 -121.7450 317° Northwest 348 400 17,800 -1,846 Descending FlightAware ADS-B
Fri 03:23:12 AM 47.1923 -121.7540 321° Northwest 349 402 17,600 -1,846 Descending FlightAware ADS-B
Fri 03:23:19 AM 47.2021 -121.7630 328° Northwest 350 403 17,400 -1,946 Descending FlightAware ADS-B
Fri 03:23:49 AM 47.2448 -121.7970 332° Northwest 345 397 16,400 -1,900 Descending FlightAware ADS-B
Fri 03:24:19 AM 47.2870 -121.8300 332° Northwest 340 391 15,500 -1,700 Descending FlightAware ADS-B
Fri 03:24:49 AM 47.3278 -121.8620 332° Northwest 330 380 14,700 -1,770 Descending FlightAware ADS-B
Fri 03:25:20 AM 47.3681 -121.8960 330° Northwest 329 379 13,700 -1,895 Descending FlightAware ADS-B
Fri 03:25:46 AM 47.4028 -121.9250 331° Northwest 324 373 12,900 -1,714 Descending FlightAware ADS-B
Fri 03:26:16 AM 47.4419 -121.9580 330° Northwest 319 367 12,100 -1,574 Descending FlightAware ADS-B
Fri 03:26:47 AM 47.4801 -121.9910 330° Northwest 310 357 11,300 -1,574 Descending FlightAware ADS-B
Fri 03:27:17 AM 47.5172 -122.0230 330° Northwest 305 351 10,500 -1,300 Descending FlightAware ADS-B
Fri 03:27:47 AM 47.5526 -122.0540 329° Northwest 286 329 10,000 -1,043 Descending FlightAware ADS-B
Fri 03:28:03 AM 47.5697 -122.0680 331° Northwest 279 321 9,700 -1,286 Descending FlightAware ADS-B
Fri 03:28:15 AM 47.5838 -122.0810 328° Northwest 274 315 9,400 -1,500 Descending FlightAware ADS-B
Fri 03:28:31 AM 47.6004 -122.0960 329° Northwest 271 312 9,000 -1,548 Descending FlightAware ADS-B
Fri 03:28:46 AM 47.6162 -122.1100 329° Northwest 270 311 8,600 -2,000 Descending FlightAware ADS-B
Fri 03:29:01 AM 47.6321 -122.1250 328° Northwest 269 310 8,000 -2,200 Descending FlightAware ADS-B
Fri 03:29:16 AM 47.6478 -122.1400 327° Northwest 267 307 7,500 -2,000 Descending FlightAware ADS-B
Fri 03:29:31 AM 47.6635 -122.1550 327° Northwest 266 306 7,000 -1,600 Descending FlightAware ADS-B
Fri 03:29:46 AM 47.6783 -122.1680 329° Northwest 260 299 6,700 -1,200 Descending FlightAware ADS-B
Fri 03:29:51 AM 47.6831 -122.1730 325° Northwest 257 296 6,600 -1,500 Descending FlightAware ADS-B
Fri 03:29:54 AM 47.6866 -122.1770 322° Northwest 254 292 6,500 -2,000 Descending FlightAware ADS-B
Fri 03:29:57 AM 47.6893 -122.1810 315° West 253 291 6,400 -1,714 Descending FlightAware ADS-B
Fri 03:30:01 AM 47.6927 -122.1860 315° West 252 290 6,300 -750 Descending FlightAware ADS-B
Fri 03:30:05 AM 47.6954 -122.1900 315° West 251 289 6,300 -750 Level FlightAware ADS-B
Fri 03:30:09 AM 47.6981 -122.1950 309° West 249 287 6,200 -1,714 Descending FlightAware ADS-B
Fri 03:30:12 AM 47.7002 -122.1990 308° West 249 287 6,100 -2,000 Descending FlightAware ADS-B
Fri 03:30:15 AM 47.7020 -122.2040 298° West 249 287 6,000 -1,714 Descending FlightAware ADS-B
Fri 03:30:19 AM 47.7043 -122.2100 300° West 249 287 5,900 -1,714 Descending FlightAware ADS-B
Fri 03:30:22 AM 47.7063 -122.2160 296° West 249 287 5,800 -1,714 Descending FlightAware ADS-B
Fri 03:30:26 AM 47.7076 -122.2210 291° West 250 288 5,700 -2,250 Descending FlightAware ADS-B
Fri 03:30:30 AM 47.7091 -122.2270 290° West 250 288 5,500 -2,000 Descending FlightAware ADS-B
Fri 03:30:35 AM 47.7106 -122.2360 284° West 252 290 5,400 -2,250 Descending FlightAware ADS-B
Fri 03:30:38 AM 47.7114 -122.2420 281° West 253 291 5,200 -2,250 Descending FlightAware ADS-B
Fri 03:30:43 AM 47.7122 -122.2490 280° West 253 291 5,100 -1,500 Descending FlightAware ADS-B
Fri 03:30:46 AM 47.7123 -122.2550 271° West 254 292 5,000 -2,000 Descending FlightAware ADS-B
Fri 03:30:49 AM 47.7121 -122.2610 267° West 254 292 4,900 -1,500 Descending FlightAware ADS-B
Fri 03:30:54 AM 47.7112 -122.2680 259° West 255 293 4,800 -2,250 Descending FlightAware ADS-B
Fri 03:30:57 AM 47.7099 -122.2740 252° West 255 293 4,600 -3,000 Descending FlightAware ADS-B
Fri 03:31:00 AM 47.7086 -122.2790 249° West 254 292 4,500 -1,500 Descending FlightAware ADS-B
Fri 03:31:05 AM 47.7057 -122.2860 238° Southwest 256 295 4,400 -1,500 Descending FlightAware ADS-B
Fri 03:31:08 AM 47.7035 -122.2910 237° Southwest 256 295 4,300 -1,714 Descending FlightAware ADS-B
Fri 03:31:12 AM 47.7010 -122.2950 227° Southwest 256 295 4,200 -1,714 Descending FlightAware ADS-B
Fri 03:31:15 AM 47.6976 -122.2990 218° Southwest 254 292 4,100 -1,714 Descending FlightAware ADS-B
Fri 03:31:19 AM 47.6942 -122.3030 218° Southwest 252 290 4,000 -750 Descending FlightAware ADS-B
Fri 03:31:23 AM 47.6902 -122.3050 199° South 250 288 4,000 -857 Level FlightAware ADS-B
Fri 03:31:26 AM 47.6868 -122.3070 202° Southwest 248 285 3,900 -1,000 Descending FlightAware ADS-B
Fri 03:31:29 AM 47.6827 -122.3090 198° South 244 281 3,900 -857 Level FlightAware ADS-B
Fri 03:31:33 AM 47.6789 -122.3100 190° South 242 278 3,800 -750 Descending FlightAware ADS-B
Fri 03:31:37 AM 47.6747 -122.3100 180° South 239 275 3,800 -750 Level FlightAware ADS-B
Fri 03:31:41 AM 47.6698 -122.3110 188° South 237 273 3,700 -750 Descending FlightAware ADS-B
Fri 03:31:45 AM 47.6652 -122.3110 180° South 234 269 3,700 -429 Level FlightAware ADS-B
Fri 03:31:55 AM 47.6545 -122.3100 176° South 227 261 3,600 -545 Descending FlightAware ADS-B
Fri 03:32:07 AM 47.6420 -122.3090 177° South 219 252 3,500 -286 Descending FlightAware ADS-B
Fri 03:32:16 AM 47.6331 -122.3090 180° South 212 244 3,500 -600 Level FlightAware ADS-B
Fri 03:32:27 AM 47.6228 -122.3090 180° South 204 235 3,300 -900 Descending FlightAware ADS-B
Fri 03:32:36 AM 47.6144 -122.3100 185° South 201 231 3,200 -480 Descending FlightAware ADS-B
Fri 03:32:52 AM 47.6005 -122.3100 180° South 196 226 3,100 -800 Descending FlightAware ADS-B
Fri 03:33:06 AM 47.5869 -122.3100 180° South 199 229 2,800 -1,250 Descending FlightAware ADS-B
Fri 03:33:16 AM 47.5776 -122.3100 180° South 199 229 2,600 -1,200 Descending FlightAware ADS-B
Fri 03:33:31 AM 47.5637 -122.3100 180° South 199 229 2,300 -1,200 Descending FlightAware ADS-B
Fri 03:33:41 AM 47.5547 -122.3100 180° South 202 232 2,100 -947 Descending FlightAware ADS-B
Fri 03:33:50 AM 47.5464 -122.3100 180° South 198 228 2,000 -1,043 Descending FlightAware ADS-B
Fri 03:34:04 AM 47.5340 -122.3100 180° South 188 216 1,700 -1,154 Descending FlightAware ADS-B
Fri 03:34:16 AM 47.5244 -122.3100 180° South 179 206 1,500 -1,043 Descending FlightAware ADS-B
Fri 03:34:27 AM 47.5151 -122.3100 180° South 166 191 1,300 -947 Descending FlightAware ADS-B
Fri 03:34:35 AM 47.5091 -122.3100 180° South 159 183 1,200 -632 Descending FlightAware ADS-B
Fri 03:34:46 AM 47.5013 -122.3110 185° South 154 177 1,100 -692 Descending FlightAware ADS-B
Fri 03:35:01 AM 47.4911 -122.3110 180° South 148 170 900 -727 Descending FlightAware ADS-B
Fri 03:35:19 AM 47.4787 -122.3110 180° South 147 169 700 -411 Descending FlightAware ADS-B
Fri 03:36:14 AM 47.4540 -122.3110 180° South 147 169 400 -327 Descending FlightAware ADS-B

Login

Don't have an account? Register now (free) for customized features, flight alerts, and more!